createdAt,value
2022-11-23T00:01:36.280Z,88.60
2022-11-23T00:04:08.510Z,88.93
2022-11-23T00:06:36.219Z,89.05
2022-11-23T00:09:04.891Z,89.16
2022-11-23T00:11:35.669Z,89.03
2022-11-23T00:14:04.366Z,89.02
2022-11-23T00:16:32.108Z,89.13
2022-11-23T00:19:01.571Z,89.12
2022-11-23T00:21:33.149Z,89.30
2022-11-23T00:24:00.901Z,89.23
2022-11-23T00:26:28.767Z,89.35
2022-11-23T00:28:56.533Z,89.57
2022-11-23T00:31:27.786Z,89.55
2022-11-23T00:33:57.159Z,89.40
2022-11-23T00:36:27.424Z,89.37
2022-11-23T00:38:55.429Z,89.34
2022-11-23T00:41:26.985Z,89.34
2022-11-23T00:43:54.931Z,89.22
2022-11-23T00:46:26.195Z,88.89
2022-11-23T00:48:57.303Z,88.54
2022-11-23T00:51:30.672Z,88.61
2022-11-23T00:53:59.762Z,88.58
2022-11-23T00:56:29.992Z,88.40
2022-11-23T00:58:59.821Z,88.17
2022-11-23T01:01:34.221Z,88.34
2022-11-23T01:04:06.221Z,88.22
2022-11-23T01:06:37.921Z,88.17
2022-11-23T01:09:25.055Z,88.24
2022-11-23T01:11:54.437Z,88.42
2022-11-23T01:14:25.171Z,88.48
2022-11-23T01:16:52.893Z,88.55
2022-11-23T01:19:21.864Z,88.46
2022-11-23T01:21:50.786Z,88.41
2022-11-23T01:24:21.959Z,88.50
2022-11-23T01:26:55.371Z,88.37
2022-11-23T01:29:24.384Z,88.37
2022-11-23T01:31:52.280Z,88.61
2022-11-23T01:34:20.046Z,88.56
2022-11-23T01:36:47.781Z,88.15
2022-11-23T01:39:15.482Z,88.10
2022-11-23T01:41:45.375Z,88.16
2022-11-23T01:44:28.447Z,87.86
2022-11-23T01:47:05.960Z,87.35
2022-11-23T01:49:42.834Z,87.42
2022-11-23T01:52:18.030Z,87.41
2022-11-23T01:54:54.695Z,87.55
2022-11-23T01:57:33.988Z,87.95
2022-11-23T02:00:02.049Z,88.33
2022-11-23T02:02:51.047Z,88.64
2022-11-23T02:05:23.180Z,88.31
2022-11-23T02:07:52.128Z,88.30
2022-11-23T02:10:22.849Z,88.24
2022-11-23T02:12:50.873Z,88.32
2022-11-23T02:15:18.648Z,88.45
2022-11-23T02:17:46.931Z,88.54
2022-11-23T02:20:18.719Z,88.39
2022-11-23T02:23:04.984Z,88.33
2022-11-23T02:26:06.541Z,88.39
2022-11-23T02:28:41.511Z,88.33
2022-11-23T02:31:09.839Z,88.24
2022-11-23T02:33:39.402Z,88.27
2022-11-23T02:36:29.591Z,88.23
2022-11-23T02:39:04.844Z,88.17
2022-11-23T02:41:46.861Z,88.29
2022-11-23T02:44:47.342Z,88.43
2022-11-23T02:47:15.927Z,88.33
2022-11-23T02:49:47.920Z,87.98
2022-11-23T02:52:17.605Z,87.44
2022-11-23T02:54:45.322Z,87.59
2022-11-23T02:57:14.103Z,87.82
2022-11-23T02:59:45.048Z,88.02
2022-11-23T03:02:13.018Z,88.07
2022-11-23T03:04:41.449Z,88.26
2022-11-23T03:07:09.355Z,87.90
2022-11-23T03:09:37.050Z,87.71
2022-11-23T03:12:04.992Z,87.82
2022-11-23T03:14:32.659Z,87.94
2022-11-23T03:17:00.813Z,88.07
2022-11-23T03:19:31.567Z,88.11
2022-11-23T03:21:59.561Z,88.26
2022-11-23T03:24:31.729Z,88.46
2022-11-23T03:27:00.278Z,88.53
2022-11-23T03:29:27.991Z,88.66
2022-11-23T03:31:56.239Z,88.53
2022-11-23T03:34:25.239Z,88.47
2022-11-23T03:36:53.028Z,88.51
2022-11-23T03:39:21.086Z,88.74
2022-11-23T03:41:51.563Z,88.73
2022-11-23T03:44:20.459Z,88.66
2022-11-23T03:46:50.346Z,88.68
2022-11-23T03:49:18.118Z,88.78
2022-11-23T03:51:45.873Z,88.86
2022-11-23T03:54:14.846Z,88.73
2022-11-23T03:56:42.487Z,88.64
2022-11-23T03:59:10.188Z,88.53
2022-11-23T04:01:38.358Z,88.44
2022-11-23T04:04:08.576Z,88.30
2022-11-23T04:06:55.085Z,88.23
2022-11-23T04:09:27.214Z,88.36
2022-11-23T04:12:08.724Z,88.17
2022-11-23T04:14:37.775Z,88.08
2022-11-23T04:17:05.534Z,88.13
2022-11-23T04:19:34.046Z,87.81
2022-11-23T04:22:02.063Z,87.69
2022-11-23T04:24:33.236Z,87.81
2022-11-23T04:27:01.381Z,88.00
2022-11-23T04:29:29.137Z,88.13
2022-11-23T04:31:57.279Z,88.13
2022-11-23T04:34:24.980Z,88.17
2022-11-23T04:36:54.028Z,88.18
2022-11-23T04:39:27.110Z,88.14
2022-11-23T04:42:12.478Z,88.11
2022-11-23T04:44:42.049Z,88.12
2022-11-23T04:47:11.842Z,87.85
2022-11-23T04:49:39.802Z,88.17
2022-11-23T04:52:08.960Z,88.34
2022-11-23T04:54:41.931Z,88.32
2022-11-23T04:57:10.136Z,88.43
2022-11-23T04:59:38.777Z,88.56
2022-11-23T05:02:06.892Z,89.02
2022-11-23T05:04:42.184Z,89.19
2022-11-23T05:07:10.191Z,89.65
2022-11-23T05:09:38.686Z,89.93
2022-11-23T05:12:21.497Z,90.25
2022-11-23T05:14:49.156Z,90.29
2022-11-23T05:17:21.778Z,90.34
2022-11-23T05:19:50.299Z,90.46
2022-11-23T05:22:18.470Z,90.69
2022-11-23T05:24:46.200Z,90.72
2022-11-23T05:27:17.717Z,90.68
2022-11-23T05:29:45.921Z,90.60
2022-11-23T05:32:13.754Z,90.31
2022-11-23T05:34:41.913Z,90.28
2022-11-23T05:37:10.746Z,89.98
2022-11-23T05:39:46.149Z,89.70
2022-11-23T05:42:14.294Z,89.50
2022-11-23T05:44:43.174Z,89.41
2022-11-23T05:47:17.427Z,89.42
2022-11-23T05:49:45.084Z,89.55
2022-11-23T05:52:14.882Z,89.75
2022-11-23T05:54:42.626Z,89.78
2022-11-23T05:57:13.096Z,89.77
2022-11-23T05:59:42.117Z,89.73
2022-11-23T06:02:13.256Z,89.64
2022-11-23T06:04:40.967Z,89.85
2022-11-23T06:07:11.659Z,89.79
2022-11-23T06:09:58.493Z,90.09
2022-11-23T06:12:30.779Z,90.25
2022-11-23T06:14:59.284Z,90.26
2022-11-23T06:17:27.446Z,90.27
2022-11-23T06:20:00.693Z,90.35
2022-11-23T06:22:28.720Z,90.48
2022-11-23T06:25:01.133Z,90.85
2022-11-23T06:27:37.951Z,90.67
2022-11-23T06:30:13.158Z,90.76
2022-11-23T06:32:41.707Z,90.72
2022-11-23T06:35:09.974Z,90.68
2022-11-23T06:37:40.079Z,90.56
2022-11-23T06:40:09.805Z,90.59
2022-11-23T06:42:39.868Z,90.56
2022-11-23T06:45:13.914Z,90.52
2022-11-23T06:47:41.689Z,90.51
2022-11-23T06:50:09.700Z,90.49
2022-11-23T06:52:37.500Z,90.54
2022-11-23T06:55:05.906Z,90.58
2022-11-23T06:57:33.667Z,90.51
2022-11-23T07:00:01.634Z,90.67
2022-11-23T07:02:33.978Z,90.62
2022-11-23T07:05:01.695Z,90.67
2022-11-23T07:07:29.809Z,90.62
2022-11-23T07:10:07.950Z,90.70
2022-11-23T07:12:43.600Z,90.75
2022-11-23T07:15:11.862Z,90.70
2022-11-23T07:17:44.488Z,90.86
2022-11-23T07:20:14.028Z,90.89
2022-11-23T07:22:41.861Z,91.11
2022-11-23T07:25:11.398Z,91.18
2022-11-23T07:27:39.114Z,91.33
2022-11-23T07:30:09.153Z,91.41
2022-11-23T07:32:36.836Z,91.49
2022-11-23T07:35:05.107Z,91.56
2022-11-23T07:37:35.229Z,91.51
2022-11-23T07:40:03.646Z,91.48
2022-11-23T07:42:35.739Z,91.52
2022-11-23T07:45:09.337Z,91.63
2022-11-23T07:47:40.234Z,91.69
2022-11-23T07:50:11.252Z,91.72
2022-11-23T07:52:40.032Z,91.78
2022-11-23T07:55:08.421Z,91.89
2022-11-23T07:57:36.077Z,91.93
2022-11-23T08:00:05.344Z,91.83
2022-11-23T08:02:57.796Z,91.99
2022-11-23T08:05:31.003Z,92.12
2022-11-23T08:08:03.316Z,92.01
2022-11-23T08:10:32.736Z,92.27
2022-11-23T08:13:06.367Z,92.20
2022-11-23T08:15:34.471Z,92.17
2022-11-23T08:18:04.385Z,92.35
2022-11-23T08:20:33.507Z,92.21
2022-11-23T08:23:01.256Z,92.38
2022-11-23T08:25:30.607Z,92.35
2022-11-23T08:28:04.184Z,92.37
2022-11-23T08:30:33.864Z,92.29
2022-11-23T08:33:09.441Z,92.28
2022-11-23T08:35:39.497Z,92.33
2022-11-23T08:38:09.830Z,92.39
2022-11-23T08:40:38.919Z,92.28
2022-11-23T08:43:07.067Z,92.26
2022-11-23T08:45:35.141Z,92.42
2022-11-23T08:48:04.525Z,92.31
2022-11-23T08:50:34.394Z,92.32
2022-11-23T08:53:02.211Z,92.37
2022-11-23T08:55:30.038Z,92.31
2022-11-23T08:57:59.197Z,92.49
2022-11-23T09:00:28.078Z,92.39
2022-11-23T09:02:59.889Z,92.51
2022-11-23T09:05:29.977Z,92.49
2022-11-23T09:08:01.466Z,92.49
2022-11-23T09:10:29.165Z,92.49
2022-11-23T09:12:58.885Z,92.69
2022-11-23T09:15:26.751Z,93.17
2022-11-23T09:17:54.449Z,93.26
2022-11-23T09:20:22.425Z,92.89
2022-11-23T09:22:52.849Z,92.49
2022-11-23T09:25:22.659Z,92.01
2022-11-23T09:28:00.024Z,91.09
2022-11-23T09:30:28.101Z,90.51
2022-11-23T09:32:58.885Z,90.22
2022-11-23T09:35:27.020Z,90.12
2022-11-23T09:37:59.120Z,90.10
2022-11-23T09:40:37.813Z,90.16
2022-11-23T09:43:41.579Z,90.16
2022-11-23T09:46:41.270Z,90.20
2022-11-23T09:49:22.044Z,90.15
2022-11-23T09:51:55.957Z,90.17
2022-11-23T09:54:37.400Z,90.00
2022-11-23T09:57:05.675Z,89.82
2022-11-23T09:59:51.985Z,89.70
2022-11-23T10:02:25.307Z,89.57
2022-11-23T10:04:53.731Z,89.55
2022-11-23T10:07:22.732Z,89.73
2022-11-23T10:10:43.899Z,89.63
2022-11-23T10:13:27.010Z,89.41
2022-11-23T10:16:11.371Z,89.22
2022-11-23T10:19:08.676Z,88.85
2022-11-23T10:22:10.881Z,87.31
2022-11-23T10:24:45.585Z,86.97
2022-11-23T10:27:22.682Z,86.42
2022-11-23T10:29:52.560Z,86.02
2022-11-23T10:33:20.559Z,85.23
2022-11-23T10:35:48.336Z,84.78
2022-11-23T10:38:21.749Z,84.11
2022-11-23T10:40:55.146Z,84.25
2022-11-23T10:43:29.509Z,84.65
2022-11-23T10:46:29.745Z,84.97
2022-11-23T10:49:21.956Z,84.88
2022-11-23T10:52:06.430Z,84.73
2022-11-23T10:54:40.423Z,84.93
2022-11-23T10:57:27.885Z,84.93
2022-11-23T11:00:05.290Z,84.78
2022-11-23T11:02:53.291Z,84.68
2022-11-23T11:08:46.508Z,84.24
2022-11-23T11:11:29.093Z,84.65
2022-11-23T11:14:17.000Z,83.86
2022-11-23T11:16:52.790Z,84.14
2022-11-23T11:19:29.581Z,83.44
2022-11-23T11:22:23.080Z,83.14
2022-11-23T11:24:51.001Z,83.33
2022-11-23T11:27:25.082Z,83.34
2022-11-23T11:30:04.285Z,83.30
2022-11-23T11:32:59.452Z,83.45
2022-11-23T11:35:34.349Z,83.71
2022-11-23T11:38:27.820Z,82.36
2022-11-23T11:41:00.090Z,82.49
2022-11-23T11:43:40.256Z,82.60
2022-11-23T11:46:30.902Z,82.40
2022-11-23T11:49:19.299Z,81.89
2022-11-23T11:51:59.451Z,81.73
2022-11-23T11:54:46.352Z,81.38
2022-11-23T11:57:29.566Z,81.67
2022-11-23T11:59:58.292Z,81.60
2022-11-23T12:02:41.710Z,81.88
2022-11-23T12:05:28.126Z,80.58
2022-11-23T12:08:17.192Z,79.95
2022-11-23T12:11:02.214Z,80.22
2022-11-23T12:13:37.085Z,80.24
2022-11-23T12:16:33.458Z,79.88
2022-11-23T12:19:09.206Z,80.52
2022-11-23T12:22:19.492Z,80.44
2022-11-23T12:25:21.163Z,79.59
2022-11-23T12:28:29.317Z,80.28
2022-11-23T12:31:13.763Z,79.94
2022-11-23T12:34:28.017Z,79.01
2022-11-23T12:37:04.096Z,78.88
2022-11-23T12:40:15.040Z,79.20
2022-11-23T12:42:49.165Z,79.29
2022-11-23T12:45:48.615Z,79.37
2022-11-23T12:48:28.648Z,79.11
2022-11-23T12:51:21.374Z,78.90
2022-11-23T12:54:13.079Z,78.67
2022-11-23T12:57:03.476Z,78.36
2022-11-23T13:00:00.116Z,79.15
2022-11-23T13:02:58.370Z,78.57
2022-11-23T13:05:55.658Z,77.84
2022-11-23T13:08:41.712Z,77.34
2022-11-23T13:11:35.369Z,77.14
2022-11-23T13:14:19.910Z,77.15
2022-11-23T13:17:09.526Z,76.79
2022-11-23T13:20:14.876Z,77.53
2022-11-23T13:22:45.885Z,77.12
2022-11-23T13:25:15.335Z,77.08
2022-11-23T13:27:48.003Z,76.32
2022-11-23T13:30:52.338Z,76.41
2022-11-23T13:33:31.803Z,76.13
2022-11-23T13:36:10.399Z,76.38
2022-11-23T13:38:43.777Z,76.26
2022-11-23T13:41:39.872Z,75.58
2022-11-23T13:44:33.973Z,75.19
2022-11-23T13:47:14.852Z,75.54
2022-11-23T13:49:43.957Z,75.62
2022-11-23T13:52:23.956Z,75.40
2022-11-23T13:55:11.012Z,75.13
2022-11-23T13:57:44.281Z,74.88
2022-11-23T14:01:06.489Z,74.50
2022-11-23T14:03:47.847Z,74.65
2022-11-23T14:06:45.589Z,74.59
2022-11-23T14:09:36.131Z,74.88
2022-11-23T14:12:26.030Z,73.81
2022-11-23T14:15:06.299Z,74.06
2022-11-23T14:17:57.354Z,73.58
2022-11-23T14:21:18.300Z,74.34
2022-11-23T14:24:24.621Z,74.12
2022-11-23T14:27:38.942Z,74.40
2022-11-23T14:30:22.611Z,73.46
2022-11-23T14:33:11.845Z,73.62
2022-11-23T14:35:57.852Z,74.19
2022-11-23T14:38:53.447Z,74.46
2022-11-23T14:41:27.754Z,74.27
2022-11-23T14:43:57.316Z,74.01
2022-11-23T14:46:25.775Z,74.21
2022-11-23T14:49:06.848Z,74.68
2022-11-23T14:51:39.488Z,74.97
2022-11-23T14:54:11.019Z,75.05
2022-11-23T14:56:45.260Z,75.65
2022-11-23T14:59:27.680Z,74.89
2022-11-23T15:02:03.001Z,74.65
2022-11-23T15:04:38.163Z,74.70
2022-11-23T15:07:18.297Z,74.86
2022-11-23T15:10:00.292Z,75.10
2022-11-23T15:12:41.929Z,75.08
2022-11-23T15:15:17.897Z,74.85
2022-11-23T15:18:02.519Z,74.15
2022-11-23T15:20:34.408Z,73.24
2022-11-23T15:23:03.817Z,73.11
2022-11-23T15:25:31.879Z,73.62
2022-11-23T15:27:59.828Z,73.77
2022-11-23T15:30:30.480Z,74.38
2022-11-23T15:33:08.953Z,74.79
2022-11-23T15:35:40.022Z,74.88
2022-11-23T15:38:19.063Z,75.26
2022-11-23T15:40:51.066Z,75.56
2022-11-23T15:43:20.374Z,75.74
2022-11-23T15:45:48.189Z,75.65
2022-11-23T15:48:21.621Z,75.97
2022-11-23T15:50:59.599Z,76.11
2022-11-23T15:53:31.774Z,76.47
2022-11-23T15:56:05.377Z,76.94
2022-11-23T15:58:35.309Z,77.21
2022-11-23T16:01:13.150Z,77.40
2022-11-23T16:04:07.279Z,77.66
2022-11-23T16:06:36.574Z,77.98
2022-11-23T16:09:50.548Z,78.14
2022-11-23T16:12:59.567Z,78.64
2022-11-23T16:15:27.274Z,78.97
2022-11-23T16:17:55.281Z,79.35
2022-11-23T16:20:25.457Z,79.48
2022-11-23T16:22:55.938Z,79.42
2022-11-23T16:25:34.442Z,79.40
2022-11-23T16:28:19.574Z,79.55
2022-11-23T16:30:47.444Z,79.81
2022-11-23T16:33:18.698Z,79.88
2022-11-23T16:35:53.585Z,80.10
2022-11-23T16:38:23.312Z,80.30
2022-11-23T16:40:51.277Z,80.56
2022-11-23T16:43:19.196Z,80.76
2022-11-23T16:45:51.199Z,80.84
2022-11-23T16:48:25.310Z,81.03
2022-11-23T16:50:56.089Z,81.06
2022-11-23T16:53:30.101Z,81.33
2022-11-23T16:56:00.458Z,81.54
2022-11-23T16:58:34.794Z,81.62
2022-11-23T17:01:02.988Z,81.81
2022-11-23T17:03:30.850Z,81.97
2022-11-23T17:05:58.479Z,82.19
2022-11-23T17:08:26.388Z,82.26
2022-11-23T17:10:54.100Z,82.34
2022-11-23T17:13:26.706Z,82.46
2022-11-23T17:15:55.725Z,82.64
2022-11-23T17:18:23.460Z,82.81
2022-11-23T17:20:51.279Z,82.90
2022-11-23T17:23:19.134Z,82.98
2022-11-23T17:25:47.029Z,83.16
2022-11-23T17:28:21.565Z,83.30
2022-11-23T17:30:50.289Z,83.30
2022-11-23T17:33:18.206Z,83.40
2022-11-23T17:35:46.000Z,83.48
2022-11-23T17:38:22.410Z,83.72
2022-11-23T17:40:50.305Z,83.94
2022-11-23T17:43:19.592Z,84.06
2022-11-23T17:45:47.684Z,84.00
2022-11-23T17:48:16.681Z,84.03
2022-11-23T17:50:44.406Z,84.48
2022-11-23T17:53:12.118Z,85.02
2022-11-23T17:55:40.217Z,85.08
2022-11-23T17:58:09.495Z,85.31
2022-11-23T18:00:38.893Z,85.30
2022-11-23T18:03:06.581Z,85.61
2022-11-23T18:05:34.743Z,85.31
2022-11-23T18:08:02.444Z,85.02
2022-11-23T18:10:30.073Z,84.89
2022-11-23T18:12:57.861Z,84.73
2022-11-23T18:15:25.956Z,84.68
2022-11-23T18:17:54.020Z,84.61
2022-11-23T18:20:22.075Z,84.64
2022-11-23T18:22:49.875Z,84.68
2022-11-23T18:25:18.051Z,84.71
2022-11-23T18:27:45.748Z,84.70
2022-11-23T18:30:17.093Z,84.68
2022-11-23T18:32:44.836Z,84.74
2022-11-23T18:35:12.492Z,84.84
2022-11-23T18:37:40.393Z,84.91
2022-11-23T18:40:09.313Z,85.06
2022-11-23T18:42:36.998Z,85.13
2022-11-23T18:45:05.487Z,85.17
2022-11-23T18:47:33.243Z,85.20
2022-11-23T18:50:06.216Z,85.31
2022-11-23T18:52:34.290Z,85.61
2022-11-23T18:55:02.627Z,85.65
2022-11-23T18:57:30.380Z,85.65
2022-11-23T18:59:58.965Z,85.75
2022-11-23T19:02:27.237Z,85.93
2022-11-23T19:04:54.985Z,85.91
2022-11-23T19:07:26.850Z,86.06
2022-11-23T19:09:55.182Z,85.97
2022-11-23T19:12:22.995Z,86.02
2022-11-23T19:14:50.794Z,86.15
2022-11-23T19:17:18.673Z,86.00
2022-11-23T19:19:46.381Z,85.95
2022-11-23T19:22:14.037Z,86.12
2022-11-23T19:24:41.720Z,86.34
2022-11-23T19:27:09.768Z,86.29
2022-11-23T19:29:37.899Z,86.37
2022-11-23T19:32:06.044Z,86.26
2022-11-23T19:34:33.793Z,86.39
2022-11-23T19:37:01.572Z,86.58
2022-11-23T19:39:29.241Z,86.64
2022-11-23T19:41:57.479Z,86.57
2022-11-23T19:44:25.407Z,86.57
2022-11-23T19:46:53.225Z,86.63
2022-11-23T19:49:21.161Z,86.66
2022-11-23T19:51:52.270Z,86.50
2022-11-23T19:54:20.180Z,86.33
2022-11-23T19:56:50.574Z,86.17
2022-11-23T19:59:18.331Z,85.86
2022-11-23T20:01:46.277Z,85.68
2022-11-23T20:04:14.244Z,85.41
2022-11-23T20:06:42.680Z,85.22
2022-11-23T20:09:16.716Z,85.05
2022-11-23T20:11:49.299Z,84.78
2022-11-23T20:14:19.414Z,84.61
2022-11-23T20:16:47.861Z,84.69
2022-11-23T20:19:15.767Z,84.57
2022-11-23T20:21:43.551Z,84.32
2022-11-23T20:24:13.794Z,84.21
2022-11-23T20:26:42.213Z,84.17
2022-11-23T20:29:10.917Z,84.09
2022-11-23T20:31:38.829Z,84.19
2022-11-23T20:34:08.850Z,84.24
2022-11-23T20:36:38.324Z,84.28
2022-11-23T20:39:10.304Z,84.27
2022-11-23T20:41:38.917Z,84.22
2022-11-23T20:44:12.287Z,84.24
2022-11-23T20:49:30.215Z,84.10
2022-11-23T20:51:59.475Z,84.06
2022-11-23T20:54:28.065Z,84.00
2022-11-23T20:56:58.029Z,84.00
2022-11-23T20:59:26.124Z,83.97
2022-11-23T21:01:53.934Z,84.00
2022-11-23T21:04:21.668Z,84.05
2022-11-23T21:06:49.399Z,84.06
2022-11-23T21:09:17.319Z,84.11
2022-11-23T21:12:03.292Z,84.15
2022-11-23T21:14:32.918Z,84.18
2022-11-23T21:17:01.282Z,84.25
2022-11-23T21:19:32.034Z,84.32
2022-11-23T21:22:07.345Z,84.38
2022-11-23T21:24:36.243Z,84.52
2022-11-23T21:27:07.269Z,84.58
2022-11-23T21:29:35.044Z,84.59
2022-11-23T21:32:02.828Z,84.55
2022-11-23T21:34:31.173Z,84.46
2022-11-23T21:36:59.115Z,84.49
2022-11-23T21:39:26.981Z,84.34
2022-11-23T21:41:54.744Z,84.47
2022-11-23T21:44:22.790Z,84.50
2022-11-23T21:46:51.120Z,84.59
2022-11-23T21:49:19.330Z,84.63
2022-11-23T21:51:47.854Z,84.57
2022-11-23T21:54:16.274Z,84.61
2022-11-23T21:56:45.752Z,84.72
2022-11-23T21:59:14.354Z,84.61
2022-11-23T22:01:42.590Z,84.58
2022-11-23T22:04:15.116Z,84.54
2022-11-23T22:06:45.115Z,84.41
2022-11-23T22:09:13.357Z,84.38
2022-11-23T22:11:44.125Z,84.30
2022-11-23T22:14:15.312Z,84.24
2022-11-23T22:16:47.165Z,84.17
2022-11-23T22:19:16.766Z,84.27
2022-11-23T22:21:46.683Z,84.31
2022-11-23T22:24:19.436Z,84.27
2022-11-23T22:26:48.120Z,84.23
2022-11-23T22:29:16.098Z,84.32
2022-11-23T22:31:44.164Z,84.37
2022-11-23T22:34:13.820Z,84.10
2022-11-23T22:36:41.833Z,83.92
2022-11-23T22:39:10.221Z,83.91
2022-11-23T22:41:38.865Z,84.19
2022-11-23T22:44:09.981Z,84.40
2022-11-23T22:46:39.035Z,84.39
2022-11-23T22:49:07.288Z,84.49
2022-11-23T22:51:35.179Z,84.58
2022-11-23T22:54:03.901Z,84.51
2022-11-23T22:56:31.933Z,84.56
2022-11-23T22:59:00.623Z,84.51
2022-11-23T23:01:30.745Z,84.57
2022-11-23T23:04:01.873Z,84.49
2022-11-23T23:06:35.950Z,84.42
2022-11-23T23:09:07.190Z,84.48
2022-11-23T23:11:36.508Z,84.36
2022-11-23T23:14:05.077Z,84.45
2022-11-23T23:16:33.634Z,84.47
2022-11-23T23:19:01.619Z,84.39
2022-11-23T23:21:29.927Z,84.41
2022-11-23T23:24:01.001Z,84.42
2022-11-23T23:26:29.611Z,84.39
2022-11-23T23:29:00.473Z,84.29
2022-11-23T23:31:30.345Z,84.32
2022-11-23T23:33:59.790Z,84.32
2022-11-23T23:36:27.900Z,84.23
2022-11-23T23:38:55.796Z,84.06
2022-11-23T23:41:23.535Z,83.88
2022-11-23T23:43:51.180Z,83.58
2022-11-23T23:46:19.144Z,83.40
2022-11-23T23:48:46.999Z,83.03
2022-11-23T23:51:19.159Z,82.57
2022-11-23T23:53:48.322Z,81.75
2022-11-23T23:56:23.645Z,81.22
2022-11-23T23:58:54.126Z,81.32
